createdAt,value
2024-03-04T00:00:23.532Z,82.25
2024-03-04T00:02:50.048Z,81.35
2024-03-04T00:05:16.546Z,81.77
2024-03-04T00:07:43.159Z,81.06
2024-03-04T00:10:09.976Z,81.05
2024-03-04T00:12:36.456Z,81.55
2024-03-04T00:15:03.072Z,80.77
2024-03-04T00:17:31.010Z,83.34
2024-03-04T00:19:58.116Z,81.80
2024-03-04T00:22:25.011Z,82.01
2024-03-04T00:24:51.585Z,82.61
2024-03-04T00:27:18.135Z,83.52
2024-03-04T00:29:44.631Z,83.15
2024-03-04T00:32:12.151Z,82.83
2024-03-04T00:34:39.308Z,84.16
2024-03-04T00:37:06.446Z,85.09
2024-03-04T00:39:33.009Z,84.62
2024-03-04T00:41:59.785Z,84.36
2024-03-04T00:44:26.616Z,84.44
2024-03-04T00:46:53.399Z,84.75
2024-03-04T00:49:20.366Z,85.51
2024-03-04T00:51:47.085Z,85.80
2024-03-04T00:54:14.334Z,84.93
2024-03-04T00:56:40.790Z,84.62
2024-03-04T00:59:08.389Z,84.86
2024-03-04T01:01:35.539Z,84.81
2024-03-04T01:04:02.179Z,84.75
2024-03-04T01:06:28.926Z,84.71
2024-03-04T01:08:55.737Z,84.48
2024-03-04T01:11:22.264Z,83.98
2024-03-04T01:13:48.837Z,84.60
2024-03-04T01:16:15.504Z,84.25
2024-03-04T01:18:42.043Z,84.57
2024-03-04T01:21:08.616Z,84.24
2024-03-04T01:23:35.190Z,84.25
2024-03-04T01:26:02.167Z,84.03
2024-03-04T01:28:29.897Z,84.58
2024-03-04T01:30:56.678Z,84.79
2024-03-04T01:33:24.209Z,85.30
2024-03-04T01:35:50.917Z,85.19
2024-03-04T01:38:17.754Z,85.55
2024-03-04T01:40:44.392Z,86.06
2024-03-04T01:43:10.972Z,87.08
2024-03-04T01:45:37.561Z,86.81
2024-03-04T01:48:05.273Z,85.98
2024-03-04T01:50:34.893Z,85.97
2024-03-04T01:53:04.906Z,86.53
2024-03-04T01:55:38.755Z,86.98
2024-03-04T01:58:07.080Z,87.28
2024-03-04T02:00:36.145Z,86.53
2024-03-04T02:03:03.510Z,85.55
2024-03-04T02:05:30.031Z,85.47
2024-03-04T02:07:57.388Z,86.21
2024-03-04T02:10:23.942Z,86.04
2024-03-04T02:12:50.566Z,85.93
2024-03-04T02:15:17.146Z,85.56
2024-03-04T02:17:43.659Z,85.67
2024-03-04T02:20:13.947Z,86.35
2024-03-04T02:22:40.747Z,87.82
2024-03-04T02:25:08.044Z,87.60
2024-03-04T02:27:36.199Z,87.00
2024-03-04T02:30:05.506Z,87.09
2024-03-04T02:32:32.857Z,87.41
2024-03-04T02:35:04.078Z,87.17
2024-03-04T02:37:32.806Z,87.60
2024-03-04T02:40:01.616Z,85.34
2024-03-04T02:42:28.190Z,83.85
2024-03-04T02:44:54.804Z,83.24
2024-03-04T02:47:21.345Z,83.90
2024-03-04T02:49:47.889Z,83.71
2024-03-04T02:52:14.418Z,83.74
2024-03-04T02:54:41.076Z,83.29
2024-03-04T02:57:07.629Z,83.73
2024-03-04T02:59:34.173Z,84.37
2024-03-04T03:02:00.712Z,83.99
2024-03-04T03:04:27.838Z,83.76
2024-03-04T03:06:54.507Z,83.27
2024-03-04T03:09:20.986Z,83.30
2024-03-04T03:11:47.480Z,83.61
2024-03-04T03:14:14.492Z,83.85
2024-03-04T03:16:42.038Z,83.97
2024-03-04T03:19:08.661Z,84.17
2024-03-04T03:21:35.322Z,84.07
2024-03-04T03:24:01.810Z,84.83
2024-03-04T03:26:28.304Z,85.04
2024-03-04T03:28:55.678Z,84.95
2024-03-04T03:31:24.386Z,84.54
2024-03-04T03:33:51.107Z,84.78
2024-03-04T03:36:17.600Z,85.12
2024-03-04T03:38:44.074Z,85.70
2024-03-04T03:41:10.719Z,85.82
2024-03-04T03:43:37.393Z,86.34
2024-03-04T03:46:04.164Z,86.70
2024-03-04T03:48:30.970Z,86.66
2024-03-04T03:50:58.223Z,86.87
2024-03-04T03:53:25.158Z,87.01
2024-03-04T03:55:51.862Z,86.45
2024-03-04T03:58:18.541Z,86.27
2024-03-04T04:00:46.032Z,86.50
2024-03-04T04:03:12.965Z,85.99
2024-03-04T04:05:40.029Z,85.65
2024-03-04T04:08:06.894Z,85.41
2024-03-04T04:10:33.427Z,85.27
2024-03-04T04:13:00.118Z,84.96
2024-03-04T04:15:29.620Z,84.98
2024-03-04T04:17:56.753Z,85.14
2024-03-04T04:20:23.850Z,85.32
2024-03-04T04:22:50.340Z,85.80
2024-03-04T04:25:17.811Z,85.47
2024-03-04T04:27:46.300Z,85.63
2024-03-04T04:30:13.025Z,86.74
2024-03-04T04:32:39.906Z,86.11
2024-03-04T04:35:06.502Z,86.24
2024-03-04T04:37:33.651Z,85.77
2024-03-04T04:40:00.474Z,85.94
2024-03-04T04:42:27.723Z,86.02
2024-03-04T04:44:54.215Z,85.62
2024-03-04T04:47:24.029Z,85.55
2024-03-04T04:49:50.656Z,86.30
2024-03-04T04:52:17.263Z,85.46
2024-03-04T04:54:45.382Z,84.92
2024-03-04T04:57:12.711Z,85.55
2024-03-04T04:59:39.208Z,87.12
2024-03-04T05:02:05.855Z,87.18
2024-03-04T05:04:44.280Z,87.34
2024-03-04T05:07:19.025Z,86.38
2024-03-04T05:09:45.557Z,86.26
2024-03-04T05:12:12.052Z,86.76
2024-03-04T05:14:38.549Z,86.47
2024-03-04T05:17:05.552Z,86.83
2024-03-04T05:19:36.799Z,86.24
2024-03-04T05:22:04.232Z,85.67
2024-03-04T05:24:30.901Z,85.59
2024-03-04T05:26:57.415Z,85.62
2024-03-04T05:29:23.967Z,85.49
2024-03-04T05:31:55.557Z,85.71
2024-03-04T05:34:22.222Z,85.33
2024-03-04T05:36:49.335Z,85.47
2024-03-04T05:39:22.191Z,83.90
2024-03-04T05:41:52.205Z,83.52
2024-03-04T05:44:19.059Z,84.28
2024-03-04T05:46:45.694Z,84.20
2024-03-04T05:49:12.938Z,84.11
2024-03-04T05:51:42.382Z,84.49
2024-03-04T05:54:10.311Z,85.04
2024-03-04T05:56:44.783Z,85.39
2024-03-04T05:59:11.823Z,85.13
2024-03-04T06:01:39.590Z,86.32
2024-03-04T06:04:06.532Z,86.81
2024-03-04T06:06:33.550Z,87.43
2024-03-04T06:09:04.545Z,87.16
2024-03-04T06:11:31.756Z,87.78
2024-03-04T06:13:58.266Z,87.96
2024-03-04T06:16:24.860Z,88.02
2024-03-04T06:18:52.088Z,88.28
2024-03-04T06:21:18.816Z,88.22
2024-03-04T06:23:45.342Z,88.05
2024-03-04T06:26:12.957Z,88.41
2024-03-04T06:28:40.075Z,88.29
2024-03-04T06:31:07.115Z,88.07
2024-03-04T06:33:44.494Z,88.23
2024-03-04T06:36:18.846Z,88.72
2024-03-04T06:38:45.345Z,88.33
2024-03-04T06:41:11.923Z,87.78
2024-03-04T06:43:38.600Z,87.78
2024-03-04T06:46:05.200Z,87.52
2024-03-04T06:48:32.008Z,86.86
2024-03-04T06:50:58.499Z,86.33
2024-03-04T06:53:24.977Z,86.00
2024-03-04T06:55:52.558Z,85.17
2024-03-04T06:58:20.313Z,84.24
2024-03-04T07:00:49.113Z,84.30
2024-03-04T07:03:15.805Z,83.68
2024-03-04T07:05:42.370Z,83.55
2024-03-04T07:08:08.887Z,82.54
2024-03-04T07:10:36.232Z,81.32
2024-03-04T07:13:03.059Z,80.73
2024-03-04T07:15:29.657Z,80.66
2024-03-04T07:17:56.632Z,79.92
2024-03-04T07:20:23.218Z,79.64
2024-03-04T07:22:49.826Z,79.32
2024-03-04T07:25:16.533Z,78.10
2024-03-04T07:27:43.125Z,77.79
2024-03-04T07:30:10.206Z,77.75
2024-03-04T07:32:36.982Z,76.90
2024-03-04T07:35:03.786Z,76.42
2024-03-04T07:37:30.338Z,75.34
2024-03-04T07:39:56.905Z,75.71
2024-03-04T07:42:25.272Z,74.56
2024-03-04T07:44:51.883Z,74.51
2024-03-04T07:47:18.412Z,73.01
2024-03-04T07:49:45.477Z,71.03
2024-03-04T07:52:12.004Z,71.99
2024-03-04T07:54:38.523Z,71.43
2024-03-04T07:57:10.654Z,72.29
2024-03-04T07:59:44.199Z,71.43
2024-03-04T08:02:10.858Z,70.64
2024-03-04T08:04:37.400Z,70.45
2024-03-04T08:07:04.681Z,70.66
2024-03-04T08:09:31.284Z,70.08
2024-03-04T08:11:57.894Z,70.07
2024-03-04T08:14:24.364Z,69.46
2024-03-04T08:16:50.912Z,70.58
2024-03-04T08:19:17.499Z,70.26
2024-03-04T08:21:46.901Z,70.40
2024-03-04T08:24:13.441Z,69.86
2024-03-04T08:26:40.097Z,67.73
2024-03-04T08:29:06.720Z,67.15
2024-03-04T08:31:33.967Z,65.62
2024-03-04T08:34:00.628Z,67.30
2024-03-04T08:36:27.211Z,66.62
2024-03-04T08:38:53.778Z,66.40
2024-03-04T08:41:20.351Z,65.92
2024-03-04T08:43:48.703Z,65.91
2024-03-04T08:46:15.344Z,64.63
2024-03-04T08:48:42.044Z,65.06
2024-03-04T08:51:09.091Z,65.33
2024-03-04T08:53:35.611Z,63.79
2024-03-04T08:56:02.761Z,64.37
2024-03-04T08:58:29.266Z,63.60
2024-03-04T09:00:55.900Z,63.16
2024-03-04T09:03:22.430Z,64.34
2024-03-04T09:05:48.962Z,63.39
2024-03-04T09:08:17.051Z,63.23
2024-03-04T09:10:43.589Z,62.91
2024-03-04T09:13:10.185Z,65.44
2024-03-04T09:15:37.440Z,62.75
2024-03-04T09:18:06.278Z,63.61
2024-03-04T09:20:32.809Z,62.42
2024-03-04T09:22:59.307Z,62.95
2024-03-04T09:25:26.106Z,62.58
2024-03-04T09:27:52.594Z,62.48
2024-03-04T09:30:19.157Z,62.23
2024-03-04T09:32:45.684Z,61.69
2024-03-04T09:35:12.660Z,61.58
2024-03-04T09:37:39.469Z,61.55
2024-03-04T09:40:11.181Z,61.82
2024-03-04T09:42:41.957Z,61.59
2024-03-04T09:45:10.533Z,61.74
2024-03-04T09:47:39.148Z,62.47
2024-03-04T09:50:06.284Z,62.59
2024-03-04T09:52:34.728Z,61.40
2024-03-04T09:55:02.578Z,61.33
2024-03-04T09:57:29.700Z,61.83
2024-03-04T09:59:59.692Z,61.54
2024-03-04T10:02:26.367Z,61.95
2024-03-04T10:04:56.757Z,62.05
2024-03-04T10:07:24.570Z,61.93
2024-03-04T10:09:55.931Z,61.26
2024-03-04T10:12:22.452Z,62.19
2024-03-04T10:15:01.102Z,61.75
2024-03-04T10:17:28.395Z,60.91
2024-03-04T10:20:06.592Z,59.81
2024-03-04T10:22:51.854Z,60.54
2024-03-04T10:25:19.479Z,60.67
2024-03-04T10:27:54.594Z,60.84
2024-03-04T10:30:25.485Z,60.52
2024-03-04T10:32:57.660Z,60.45
2024-03-04T10:35:26.962Z,59.17
2024-03-04T10:37:57.981Z,58.93
2024-03-04T10:40:24.665Z,59.17
2024-03-04T10:42:51.223Z,58.91
2024-03-04T10:45:18.005Z,58.80
2024-03-04T10:47:46.698Z,58.56
2024-03-04T10:50:16.119Z,59.15
2024-03-04T10:52:45.151Z,59.49
2024-03-04T10:55:13.226Z,59.02
2024-03-04T10:57:44.866Z,59.59
2024-03-04T11:00:21.349Z,60.05
2024-03-04T11:03:00.164Z,58.21
2024-03-04T11:05:28.273Z,59.24
2024-03-04T11:08:33.685Z,57.66
2024-03-04T11:11:19.282Z,57.89
2024-03-04T11:14:06.051Z,58.25
2024-03-04T11:16:43.725Z,57.40
2024-03-04T11:19:12.310Z,56.44
2024-03-04T11:21:41.142Z,57.36
2024-03-04T11:24:10.000Z,57.17
2024-03-04T11:26:41.408Z,56.17
2024-03-04T11:29:09.047Z,55.77
2024-03-04T11:31:35.724Z,56.74
2024-03-04T11:34:04.669Z,56.29
2024-03-04T11:36:33.600Z,57.52
2024-03-04T11:39:03.990Z,56.66
2024-03-04T11:41:51.056Z,56.49
2024-03-04T11:44:25.433Z,57.50
2024-03-04T11:46:52.306Z,56.49
2024-03-04T11:49:21.844Z,55.56
2024-03-04T11:52:07.335Z,56.82
2024-03-04T11:54:34.786Z,55.45
2024-03-04T11:57:03.102Z,54.20
2024-03-04T11:59:29.891Z,55.08
2024-03-04T12:01:56.732Z,53.83
2024-03-04T12:04:25.141Z,53.88
2024-03-04T12:06:53.272Z,53.94
2024-03-04T12:09:44.056Z,53.59
2024-03-04T12:12:15.143Z,53.73
2024-03-04T12:14:46.072Z,52.96
2024-03-04T12:17:13.578Z,52.19
2024-03-04T12:19:52.177Z,51.37
2024-03-04T12:22:23.981Z,52.00
2024-03-04T12:25:00.246Z,49.85
2024-03-04T12:27:26.869Z,49.85
2024-03-04T12:29:56.684Z,49.50
2024-03-04T12:32:23.230Z,49.06
2024-03-04T12:34:49.824Z,49.21
2024-03-04T12:37:24.369Z,50.90
2024-03-04T12:39:52.548Z,51.67
2024-03-04T12:42:19.195Z,49.71
2024-03-04T12:44:45.823Z,49.63
2024-03-04T12:47:13.973Z,49.77
2024-03-04T12:49:40.741Z,49.31
2024-03-04T12:52:07.382Z,49.60
2024-03-04T12:54:34.479Z,49.87
2024-03-04T12:57:01.004Z,48.70
2024-03-04T12:59:28.695Z,48.35
2024-03-04T13:01:55.319Z,48.72
2024-03-04T13:04:21.989Z,48.84
2024-03-04T13:06:48.605Z,49.71
2024-03-04T13:09:17.159Z,49.41
2024-03-04T13:11:44.278Z,49.13
2024-03-04T13:14:10.967Z,48.27
2024-03-04T13:16:38.296Z,48.55
2024-03-04T13:19:04.875Z,48.05
2024-03-04T13:21:31.417Z,47.80
2024-03-04T13:23:59.950Z,48.02
2024-03-04T13:26:28.094Z,47.63
2024-03-04T13:28:55.102Z,48.24
2024-03-04T13:31:22.038Z,48.58
2024-03-04T13:33:48.634Z,47.99
2024-03-04T13:36:15.236Z,48.95
2024-03-04T13:38:41.796Z,48.21
2024-03-04T13:41:08.373Z,47.49
2024-03-04T13:43:39.589Z,47.83
2024-03-04T13:46:07.994Z,47.76
2024-03-04T13:48:34.541Z,47.54
2024-03-04T13:51:01.061Z,47.32
2024-03-04T13:53:27.612Z,47.73
2024-03-04T13:55:54.205Z,48.05
2024-03-04T13:58:20.756Z,48.64
2024-03-04T14:00:47.383Z,50.11
2024-03-04T14:03:13.915Z,50.48
2024-03-04T14:05:40.457Z,50.74
2024-03-04T14:08:07.326Z,51.04
2024-03-04T14:10:33.868Z,50.49
2024-03-04T14:13:00.453Z,51.09
2024-03-04T14:15:26.988Z,50.77
2024-03-04T14:17:53.496Z,50.32
2024-03-04T14:20:20.138Z,51.58
2024-03-04T14:22:46.825Z,50.22
2024-03-04T14:25:13.545Z,50.96
2024-03-04T14:27:40.118Z,50.79
2024-03-04T14:30:07.380Z,50.42
2024-03-04T14:32:34.046Z,50.62
2024-03-04T14:35:00.722Z,50.88
2024-03-04T14:37:27.350Z,50.67
2024-03-04T14:39:55.966Z,50.83
2024-03-04T14:42:22.568Z,51.40
2024-03-04T14:44:49.551Z,51.45
2024-03-04T14:47:16.488Z,52.02
2024-03-04T14:49:43.033Z,52.00
2024-03-04T14:52:09.938Z,51.95
2024-03-04T14:54:36.466Z,53.21
2024-03-04T14:57:03.015Z,53.62
2024-03-04T14:59:32.468Z,52.68
2024-03-04T15:02:00.862Z,51.51
2024-03-04T15:04:28.389Z,51.67
2024-03-04T15:06:55.078Z,51.53
2024-03-04T15:09:21.867Z,52.01
2024-03-04T15:11:48.613Z,51.35
2024-03-04T15:14:15.282Z,51.80
2024-03-04T15:16:50.974Z,51.47
2024-03-04T15:19:18.360Z,53.44
2024-03-04T15:21:44.920Z,52.70
2024-03-04T15:24:11.449Z,51.72
2024-03-04T15:26:38.285Z,52.37
2024-03-04T15:29:05.793Z,51.58
2024-03-04T15:31:33.018Z,51.79
2024-03-04T15:33:59.776Z,52.29
2024-03-04T15:36:30.568Z,52.88
2024-03-04T15:39:03.982Z,53.92
2024-03-04T15:41:30.450Z,53.95
2024-03-04T15:43:56.942Z,54.07
2024-03-04T15:46:25.093Z,53.47
2024-03-04T15:48:51.769Z,53.99
2024-03-04T15:51:18.312Z,56.15
2024-03-04T15:53:46.336Z,56.98
2024-03-04T15:56:12.878Z,56.50
2024-03-04T15:58:39.481Z,56.85
2024-03-04T16:01:06.250Z,57.43
2024-03-04T16:03:34.793Z,58.37
2024-03-04T16:06:03.510Z,58.68
2024-03-04T16:08:30.350Z,59.62
2024-03-04T16:10:57.188Z,59.34
2024-03-04T16:13:24.175Z,60.19
2024-03-04T16:15:55.773Z,60.03
2024-03-04T16:18:23.445Z,60.50
2024-03-04T16:20:50.246Z,60.58
2024-03-04T16:23:16.988Z,60.71
2024-03-04T16:25:43.736Z,59.99
2024-03-04T16:28:10.537Z,60.60
2024-03-04T16:30:38.456Z,61.21
2024-03-04T16:33:06.460Z,61.28
2024-03-04T16:35:36.723Z,61.30
2024-03-04T16:38:05.117Z,61.31
2024-03-04T16:40:31.855Z,61.50
2024-03-04T16:42:58.706Z,61.71
2024-03-04T16:45:29.842Z,61.70
2024-03-04T16:47:56.537Z,61.87
2024-03-04T16:50:23.195Z,61.74
2024-03-04T16:52:50.004Z,62.21
2024-03-04T16:55:19.314Z,62.43
2024-03-04T16:57:46.098Z,62.73
2024-03-04T17:00:13.296Z,62.89
2024-03-04T17:02:40.059Z,63.07
2024-03-04T17:05:10.783Z,63.55
2024-03-04T17:07:38.850Z,65.21
2024-03-04T17:10:06.508Z,65.54
2024-03-04T17:12:36.147Z,66.30
2024-03-04T17:15:02.727Z,65.10
2024-03-04T17:17:30.630Z,64.77
2024-03-04T17:19:59.180Z,65.00
2024-03-04T17:22:28.115Z,65.45
2024-03-04T17:24:54.839Z,65.31
2024-03-04T17:27:23.436Z,65.24
2024-03-04T17:29:50.017Z,65.51
2024-03-04T17:32:16.725Z,65.57
2024-03-04T17:34:49.613Z,66.02
2024-03-04T17:37:16.311Z,65.79
2024-03-04T17:39:43.024Z,66.19
2024-03-04T17:42:10.590Z,66.01
2024-03-04T17:44:37.355Z,66.73
2024-03-04T17:47:05.203Z,66.65
2024-03-04T17:49:32.171Z,66.52
2024-03-04T17:51:58.756Z,66.40
2024-03-04T17:54:25.453Z,66.66
2024-03-04T17:56:53.014Z,67.17
2024-03-04T17:59:19.816Z,67.80
2024-03-04T18:01:47.864Z,68.90
2024-03-04T18:04:18.653Z,70.24
2024-03-04T18:06:47.568Z,70.54
2024-03-04T18:09:14.200Z,69.97
2024-03-04T18:11:41.612Z,69.08
2024-03-04T18:14:08.189Z,69.04
2024-03-04T18:16:34.906Z,69.04
2024-03-04T18:19:01.622Z,68.90
2024-03-04T18:21:28.176Z,68.89
2024-03-04T18:23:54.977Z,69.09
2024-03-04T18:26:21.613Z,69.39
2024-03-04T18:28:48.200Z,69.74
2024-03-04T18:31:21.816Z,69.35
2024-03-04T18:33:48.280Z,69.52
2024-03-04T18:36:19.377Z,69.80
2024-03-04T18:38:45.841Z,70.55
2024-03-04T18:41:12.696Z,70.99
2024-03-04T18:43:39.562Z,71.06
2024-03-04T18:46:10.239Z,70.76
2024-03-04T18:48:36.769Z,71.00
2024-03-04T18:51:03.614Z,70.67
2024-03-04T18:53:30.164Z,70.66
2024-03-04T18:55:56.876Z,70.57
2024-03-04T18:58:23.554Z,71.06
2024-03-04T19:00:51.124Z,71.71
2024-03-04T19:03:17.962Z,72.20
2024-03-04T19:05:44.733Z,72.60
2024-03-04T19:08:11.238Z,72.44
2024-03-04T19:10:37.800Z,71.99
2024-03-04T19:13:04.542Z,71.64
2024-03-04T19:15:31.548Z,72.33
2024-03-04T19:17:58.194Z,72.10
2024-03-04T19:20:24.916Z,72.70
2024-03-04T19:22:51.523Z,75.09
2024-03-04T19:25:18.355Z,75.62
2024-03-04T19:27:44.950Z,75.34
2024-03-04T19:30:12.303Z,75.79
2024-03-04T19:32:39.802Z,74.17
2024-03-04T19:35:07.690Z,74.05
2024-03-04T19:37:34.240Z,73.56
2024-03-04T19:40:00.978Z,73.29
2024-03-04T19:42:27.605Z,72.96
2024-03-04T19:44:54.121Z,73.06
2024-03-04T19:47:20.687Z,74.53
2024-03-04T19:49:47.536Z,74.74
2024-03-04T19:52:14.318Z,75.50
2024-03-04T19:54:41.449Z,75.36
2024-03-04T19:57:08.614Z,75.42
2024-03-04T19:59:35.242Z,75.62
2024-03-04T20:02:01.884Z,76.12
2024-03-04T20:04:32.273Z,75.11
2024-03-04T20:06:59.462Z,74.70
2024-03-04T20:09:26.957Z,74.39
2024-03-04T20:11:53.700Z,73.80
2024-03-04T20:14:20.355Z,73.79
2024-03-04T20:16:47.249Z,74.19
2024-03-04T20:19:13.866Z,74.93
2024-03-04T20:21:40.385Z,75.68
2024-03-04T20:24:06.930Z,76.14
2024-03-04T20:26:33.557Z,76.29
2024-03-04T20:29:00.205Z,76.62
2024-03-04T20:31:26.797Z,76.45
2024-03-04T20:33:53.429Z,76.01
2024-03-04T20:36:20.006Z,75.19
2024-03-04T20:38:46.634Z,75.09
2024-03-04T20:41:13.939Z,76.00
2024-03-04T20:43:40.618Z,76.06
2024-03-04T20:46:09.153Z,74.97
2024-03-04T20:48:37.082Z,74.89
2024-03-04T20:51:05.776Z,75.05
2024-03-04T20:53:32.474Z,75.19
2024-03-04T20:55:59.134Z,75.17
2024-03-04T20:58:25.672Z,75.10
2024-03-04T21:00:52.264Z,74.84
2024-03-04T21:03:18.769Z,74.49
2024-03-04T21:05:45.327Z,74.76
2024-03-04T21:08:11.843Z,74.54
2024-03-04T21:10:38.516Z,74.61
2024-03-04T21:13:05.062Z,75.16
2024-03-04T21:15:31.602Z,75.52
2024-03-04T21:17:59.260Z,77.32
2024-03-04T21:20:27.569Z,79.77
2024-03-04T21:22:55.679Z,80.18
2024-03-04T21:25:22.603Z,79.23
2024-03-04T21:27:52.144Z,79.01
2024-03-04T21:30:19.788Z,78.42
2024-03-04T21:32:46.361Z,78.27
2024-03-04T21:35:13.974Z,77.76
2024-03-04T21:37:40.814Z,77.68
2024-03-04T21:40:12.337Z,78.53
2024-03-04T21:42:43.062Z,77.84
2024-03-04T21:45:10.687Z,78.51
2024-03-04T21:47:37.451Z,78.94
2024-03-04T21:50:06.080Z,77.80
2024-03-04T21:52:33.335Z,78.41
2024-03-04T21:55:00.107Z,78.06
2024-03-04T21:57:27.495Z,77.48
2024-03-04T21:59:54.044Z,77.30
2024-03-04T22:02:20.635Z,77.20
2024-03-04T22:04:47.256Z,78.03
2024-03-04T22:07:13.844Z,78.97
2024-03-04T22:09:40.392Z,78.42
2024-03-04T22:12:08.508Z,80.54
2024-03-04T22:14:35.546Z,81.46
2024-03-04T22:17:02.127Z,79.81
2024-03-04T22:19:28.659Z,79.00
2024-03-04T22:21:55.183Z,78.99
2024-03-04T22:24:21.711Z,78.44
2024-03-04T22:26:49.174Z,78.31
2024-03-04T22:29:15.776Z,78.49
2024-03-04T22:31:43.708Z,78.34
2024-03-04T22:34:10.775Z,77.77
2024-03-04T22:36:41.939Z,78.06
2024-03-04T22:39:10.507Z,78.23
2024-03-04T22:41:44.361Z,79.36
2024-03-04T22:44:10.898Z,79.44
2024-03-04T22:46:37.584Z,79.85
2024-03-04T22:49:04.110Z,79.18
2024-03-04T22:51:30.656Z,78.20
2024-03-04T22:53:57.336Z,77.70
2024-03-04T22:56:23.863Z,77.22
2024-03-04T22:58:50.406Z,77.84
2024-03-04T23:01:20.689Z,78.87
2024-03-04T23:03:47.275Z,80.76
2024-03-04T23:06:13.764Z,82.60
2024-03-04T23:08:40.261Z,83.85
2024-03-04T23:11:06.937Z,82.45
2024-03-04T23:13:33.580Z,82.34
2024-03-04T23:16:01.117Z,82.42
2024-03-04T23:18:27.575Z,81.97
2024-03-04T23:20:54.056Z,80.42
2024-03-04T23:23:20.844Z,79.79
2024-03-04T23:25:47.425Z,79.35
2024-03-04T23:28:14.032Z,79.53
2024-03-04T23:30:42.697Z,79.78
2024-03-04T23:33:09.385Z,79.75
2024-03-04T23:35:35.916Z,79.93
2024-03-04T23:38:02.597Z,79.09
2024-03-04T23:40:29.180Z,78.92
2024-03-04T23:42:55.677Z,78.52
2024-03-04T23:45:23.532Z,78.23
2024-03-04T23:47:50.084Z,77.72
2024-03-04T23:50:17.221Z,78.64
2024-03-04T23:52:44.091Z,78.86
2024-03-04T23:55:10.897Z,79.47
2024-03-04T23:57:40.751Z,79.40
